Time;durP1;ratioP1;P1;durP2;ratioP2;P2;SDS_P1;SDS_P2;PMS_P1;PMS_P2;Temp;Humidity;BMP_temperature;BMP_pressure;BME280_temperature;BME280_humidity;BME280_pressure;Samples;Min_cycle;Max_cycle;Signal;HPM_P1;HPM_P2
2022/05/20 00:00:07;;;;;;;7.85;2.30;;;;;;;16.85;45.43;100738.05;1733600;81;21125;-90
2022/05/20 00:02:36;;;;;;;8.08;2.50;;;;;;;16.81;45.54;100737.86;1735898;82;21667;-80
2022/05/20 00:05:04;;;;;;;6.00;2.17;;;;;;;16.75;45.57;100737.71;1736026;82;21064;-80
2022/05/20 00:07:31;;;;;;;8.33;2.05;;;;;;;16.72;45.59;100732.13;1735896;82;21060;-90
2022/05/20 00:09:58;;;;;;;7.22;2.08;;;;;;;16.67;45.62;100742.11;1736156;82;21226;-82
2022/05/20 00:12:26;;;;;;;5.40;2.17;;;;;;;16.62;45.67;100738.87;1735886;82;21273;-93
2022/05/20 00:14:53;;;;;;;6.47;2.10;;;;;;;16.56;45.74;100743.20;1736159;82;21052;-80
2022/05/20 00:17:20;;;;;;;4.42;1.82;;;;;;;16.53;45.88;100742.52;1735923;82;21032;-91
2022/05/20 00:19:47;;;;;;;3.02;1.90;;;;;;;16.50;45.86;100738.25;1736322;82;21043;-80
2022/05/20 00:22:14;;;;;;;4.78;1.82;;;;;;;16.44;46.00;100738.13;1735989;82;21037;-80
2022/05/20 00:27:26;;;;;;;4.83;2.00;;;;;;;16.40;46.24;100734.41;1735940;82;21055;-83
2022/05/20 00:29:53;;;;;;;3.98;2.10;;;;;;;16.42;46.17;100743.13;1736223;82;21095;-80
2022/05/20 00:32:21;;;;;;;8.68;2.50;;;;;;;16.43;46.17;100738.20;1735899;82;21075;-79
2022/05/20 00:34:48;;;;;;;4.17;1.85;;;;;;;16.43;46.27;100747.02;1736164;82;21067;-80
2022/05/20 00:37:15;;;;;;;3.80;1.47;;;;;;;16.45;46.28;100753.05;1736003;82;21130;-81
2022/05/20 00:39:42;;;;;;;7.83;2.10;;;;;;;16.46;46.67;100752.14;1736085;82;21428;-80
2022/05/20 00:42:15;;;;;;;3.92;1.82;;;;;;;16.46;47.14;100757.43;1735825;82;21059;-81
2022/05/20 00:44:42;;;;;;;3.80;2.17;;;;;;;16.36;47.23;100758.02;1735935;82;21193;-80
2022/05/20 00:47:12;;;;;;;6.70;1.80;;;;;;;16.27;47.71;100752.30;1736228;82;21012;-80
2022/05/20 00:49:42;;;;;;;;;;;;;;;16.17;48.00;100754.20;1738487;82;21514;-79
2022/05/20 00:52:13;;;;;;;4.20;2.02;;;;;;;16.10;48.76;100770.01;1736332;82;20165;-80
2022/05/20 00:54:47;;;;;;;4.20;1.87;;;;;;;16.04;48.93;100766.75;1735850;82;20985;-83
2022/05/20 00:57:20;;;;;;;3.60;2.00;;;;;;;16.10;49.18;100766.92;1709850;82;21016;-82
2022/05/20 00:59:55;;;;;;;3.65;2.02;;;;;;;16.09;49.26;100756.41;1735811;82;21150;-80
2022/05/20 01:02:25;;;;;;;8.65;2.20;;;;;;;16.11;49.11;100763.80;1732152;82;21200;-82
2022/05/20 01:04:57;;;;;;;;;;;;;;;16.17;48.92;100760.81;1735741;82;21060;-83
2022/05/20 01:07:25;;;;;;;5.67;2.15;;;;;;;16.25;49.02;100759.45;1733115;82;20149;-89
2022/05/20 01:09:53;;;;;;;7.97;1.75;;;;;;;16.30;48.70;100755.72;1733160;82;21092;-84
2022/05/20 01:12:24;;;;;;;7.53;2.00;;;;;;;16.32;48.60;100757.79;1733464;82;21215;-79
2022/05/20 01:14:52;;;;;;;3.05;2.15;;;;;;;16.35;48.65;100762.47;1733236;82;21089;-80
2022/05/20 01:17:20;;;;;;;4.28;2.27;;;;;;;16.40;48.68;100763.51;1733255;82;21116;-81
2022/05/20 01:19:53;;;;;;;4.12;2.08;;;;;;;16.45;48.85;100764.11;1733266;82;21091;-79
2022/05/20 01:22:37;;;;;;;3.05;1.87;;;;;;;16.52;49.21;100766.81;1733391;82;21044;-79
2022/05/20 01:25:10;;;;;;;4.80;1.92;;;;;;;16.57;49.17;100771.83;1733174;82;21115;-80
2022/05/20 01:27:42;;;;;;;6.10;1.90;;;;;;;16.57;49.33;100768.73;1733299;82;21883;-80
2022/05/20 01:30:09;;;;;;;5.08;1.95;;;;;;;16.64;49.80;100771.88;1732993;82;21052;-79
2022/05/20 01:32:36;;;;;;;12.73;2.60;;;;;;;16.74;49.83;100775.72;1733349;82;21522;-80
2022/05/20 01:35:07;;;;;;;9.10;2.50;;;;;;;16.81;50.06;100776.25;1723852;82;21094;-80
2022/05/20 01:37:34;;;;;;;7.65;2.52;;;;;;;16.98;51.06;100773.95;1710716;83;21001;-80
2022/05/20 01:40:01;;;;;;;8.75;2.25;;;;;;;17.33;51.83;100771.42;1725428;83;21287;-92
2022/05/20 01:42:34;;;;;;;5.50;2.50;;;;;;;17.73;51.85;100786.72;1725251;83;21045;-87
2022/05/20 01:45:16;;;;;;;11.78;2.60;;;;;;;18.03;51.67;100782.22;1724772;83;21041;-82
2022/05/20 01:47:52;;;;;;;4.70;2.50;;;;;;;18.74;50.89;100785.75;1724491;83;21006;-85
2022/05/20 01:50:33;;;;;;;5.17;2.55;;;;;;;18.74;50.89;100785.75;1723946;83;21121;-81
2022/05/20 01:53:17;;;;;;;6.37;2.72;;;;;;;19.04;51.03;100780.67;1724083;83;21108;-88
2022/05/20 01:56:27;;;;;;;7.97;2.47;;;;;;;19.50;50.43;100780.25;1724361;83;21001;-83
2022/05/20 01:59:06;;;;;;;6.40;2.37;;;;;;;19.50;50.43;100780.25;1725276;83;21060;-82
2022/05/20 02:01:56;;;;;;;5.28;2.52;;;;;;;19.67;50.14;100779.97;1752450;81;21040;-79
2022/05/20 02:04:50;;;;;;;4.42;2.55;;;;;;;19.81;49.93;100788.32;1725156;81;21003;-86
2022/05/20 02:07:23;;;;;;;8.90;2.75;;;;;;;19.91;49.73;100781.41;1754978;81;21120;-81
2022/05/20 02:10:07;;;;;;;8.13;2.95;;;;;;;20.00;49.57;100787.89;1724397;83;21098;-82
2022/05/20 02:12:45;;;;;;;6.87;2.35;;;;;;;20.08;49.52;100796.19;1732763;82;21111;-80
2022/05/20 02:15:17;;;;;;;6.75;2.37;;;;;;;20.18;49.52;100788.41;1733072;82;20997;-87
2022/05/20 02:17:49;;;;;;;6.03;2.47;;;;;;;20.26;49.38;100807.35;1733523;82;20996;-80
2022/05/20 02:20:26;;;;;;;5.45;2.40;;;;;;;20.31;49.30;100802.52;1733124;82;21131;-85
2022/05/20 02:22:58;;;;;;;7.60;2.50;;;;;;;20.33;49.29;100799.28;1733042;82;21039;-80
2022/05/20 02:25:30;;;;;;;5.08;2.67;;;;;;;20.39;49.31;100803.31;1733014;82;21001;-80
2022/05/20 02:28:24;;;;;;;7.30;2.65;;;;;;;20.44;49.29;100803.84;1733409;82;21506;-82
2022/05/20 02:30:53;;;;;;;6.10;2.33;;;;;;;20.46;49.32;100804.10;1732115;82;21091;-83
2022/05/20 02:33:25;;;;;;;6.70;2.27;;;;;;;20.49;49.32;100803.88;1733553;82;21078;-82
2022/05/20 02:36:08;;;;;;;4.20;2.22;;;;;;;20.50;49.31;100805.56;1733095;82;21662;-82
2022/05/20 02:38:36;;;;;;;5.25;2.08;;;;;;;20.51;49.39;100801.12;1733287;82;21044;-83
2022/05/20 02:41:04;;;;;;;4.53;2.10;;;;;;;20.53;49.44;100803.66;1733031;82;21004;-81
2022/05/20 02:43:31;;;;;;;9.28;2.58;;;;;;;20.54;49.50;100806.73;1733299;82;21096;-79
2022/05/20 02:45:59;;;;;;;4.87;2.45;;;;;;;20.53;49.53;100804.98;1733077;82;22061;-81
2022/05/20 02:48:27;;;;;;;5.17;2.30;;;;;;;20.53;49.59;100797.00;1733214;82;21032;-83
2022/05/20 02:50:54;;;;;;;3.47;2.55;;;;;;;20.50;49.73;100796.73;1733040;82;21086;-83
2022/05/20 02:53:21;;;;;;;3.15;2.20;;;;;;;20.50;49.82;100804.23;1733288;82;21002;-82
2022/05/20 02:55:49;;;;;;;4.72;2.20;;;;;;;20.48;49.92;100807.52;1733180;82;21529;-82
2022/05/20 03:04:11;;;;;;;6.42;2.65;;;;;;;20.45;50.32;100828.16;1733666;82;21000;-81
2022/05/20 03:06:50;;;;;;;6.00;2.55;;;;;;;20.44;50.53;100826.47;1733592;82;20989;-84
2022/05/20 03:09:24;;;;;;;5.97;2.33;;;;;;;20.44;50.72;100824.66;1733683;82;21087;-81
2022/05/20 03:11:52;;;;;;;8.85;2.60;;;;;;;20.44;50.88;100818.48;1733895;82;21957;-82
2022/05/20 03:14:22;;;;;;;4.72;2.33;;;;;;;20.42;50.97;100823.06;1733713;82;21020;-83
2022/05/20 03:16:50;;;;;;;6.17;2.42;;;;;;;20.42;51.12;100821.73;1733504;82;21532;-84
2022/05/20 03:19:19;;;;;;;5.97;2.55;;;;;;;20.39;51.27;100820.13;1733858;82;21063;-83
2022/05/20 03:21:46;;;;;;;6.12;2.70;;;;;;;20.40;51.41;100823.67;1733690;82;21337;-83
2022/05/20 03:24:13;;;;;;;6.87;2.25;;;;;;;20.39;51.60;100820.13;1733791;82;21945;-81
2022/05/20 03:26:41;;;;;;;4.37;2.15;;;;;;;20.39;51.73;100820.13;1733412;82;21051;-82
2022/05/20 03:29:08;;;;;;;6.33;2.27;;;;;;;20.39;51.91;100814.81;1733842;82;22048;-84
2022/05/20 03:31:38;;;;;;;5.53;2.45;;;;;;;20.40;52.08;100821.86;1733549;82;21521;-83
2022/05/20 03:34:05;;;;;;;;;;;;;;;20.39;52.19;100824.61;1736529;82;21295;-83
2022/05/20 03:36:40;;;;;;;6.37;2.22;;;;;;;20.37;52.57;100827.41;1733659;82;21138;-82
2022/05/20 03:39:10;;;;;;;4.05;2.40;;;;;;;20.38;52.43;100827.77;1733842;82;20960;-81
2022/05/20 03:41:38;;;;;;;4.67;2.40;;;;;;;20.38;52.57;100832.24;1733525;82;21055;-82
2022/05/20 03:44:08;;;;;;;4.12;2.22;;;;;;;20.39;52.70;100835.27;1733881;82;21055;-82
2022/05/20 03:46:44;;;;;;;6.62;2.62;;;;;;;20.39;52.87;100837.92;1733662;82;21380;-80
2022/05/20 03:49:12;;;;;;;5.30;2.33;;;;;;;20.39;52.98;100842.77;1733982;82;22424;-82
2022/05/20 03:51:41;;;;;;;4.35;2.33;;;;;;;20.39;53.11;100840.59;1733442;82;21024;-80
2022/05/20 03:54:09;;;;;;;9.13;2.27;;;;;;;20.38;53.19;100842.41;1734037;82;21474;-82
2022/05/20 03:56:36;;;;;;;5.78;2.80;;;;;;;20.38;53.28;100841.56;1733596;82;21008;-81
2022/05/20 03:59:03;;;;;;;4.00;2.10;;;;;;;20.38;53.42;100847.73;1733773;82;21537;-82
2022/05/20 04:04:15;;;;;;;5.45;2.30;;;;;;;20.35;53.59;100846.62;1726724;83;21529;-81
2022/05/20 04:06:42;;;;;;;4.03;2.33;;;;;;;20.34;53.73;100853.37;1726789;83;22208;-80
2022/05/20 04:09:09;;;;;;;2.77;2.20;;;;;;;20.32;53.81;100856.16;1726893;83;21032;-81
2022/05/20 04:11:37;;;;;;;4.78;2.42;;;;;;;20.29;53.95;100855.05;1726866;83;21013;-79
2022/05/20 04:14:05;;;;;;;5.78;2.58;;;;;;;20.26;54.08;100865.42;1726800;83;21139;-82
2022/05/20 04:16:33;;;;;;;4.62;2.40;;;;;;;20.24;54.22;100864.67;1726932;83;21542;-83
2022/05/20 04:19:00;;;;;;;7.17;2.67;;;;;;;20.22;54.36;100871.06;1726823;83;21080;-81
2022/05/20 04:21:27;;;;;;;5.65;2.62;;;;;;;20.20;54.49;100870.31;1727097;83;20960;-82
2022/05/20 04:23:54;;;;;;;5.65;2.67;;;;;;;20.18;54.65;100869.59;1726778;83;21207;-79
2022/05/20 04:26:22;;;;;;;4.45;2.37;;;;;;;20.19;54.68;100876.60;1726845;83;21116;-81
2022/05/20 04:28:49;;;;;;;4.42;2.37;;;;;;;20.19;54.96;100877.94;1726768;83;21027;-81
2022/05/20 04:31:16;;;;;;;6.17;2.60;;;;;;;20.20;55.12;100879.62;1727097;83;21013;-80
2022/05/20 04:33:43;;;;;;;4.78;2.85;;;;;;;20.20;55.24;100888.94;1726764;83;21064;-80
2022/05/20 04:36:10;;;;;;;7.05;2.40;;;;;;;20.21;55.38;100885.34;1726971;83;21052;-80
2022/05/20 04:38:37;;;;;;;6.58;2.65;;;;;;;20.22;55.58;100894.53;1726675;83;21365;-82
2022/05/20 04:49:20;;;;;;;2.62;2.35;;;;;;;20.28;56.13;100898.13;1726965;83;21091;-80
2022/05/20 04:51:47;;;;;;;7.33;2.55;;;;;;;20.30;56.21;100898.00;1726991;83;21135;-82
2022/05/20 04:57:00;;;;;;;6.53;2.70;;;;;;;20.26;56.41;100900.52;1727326;83;21012;-79
2022/05/20 04:59:27;;;;;;;3.15;2.22;;;;;;;20.23;56.58;100899.38;1726861;83;21036;-79
2022/05/20 05:01:54;;;;;;;5.97;2.70;;;;;;;20.22;56.78;100909.17;1702594;82;21498;-83
2022/05/20 05:04:21;;;;;;;5.40;2.70;;;;;;;20.23;56.90;100912.23;1733194;82;21125;-80
2022/05/20 05:06:48;;;;;;;4.00;2.45;;;;;;;20.20;57.04;100911.11;1733061;82;21028;-81
2022/05/20 05:09:16;;;;;;;4.17;2.27;;;;;;;20.21;57.18;100918.13;1733063;82;20993;-81
2022/05/20 05:11:44;;;;;;;3.55;2.47;;;;;;;20.18;57.26;100910.84;1733174;82;21067;-80
2022/05/20 05:14:16;;;;;;;7.70;2.50;;;;;;;20.17;57.42;100907.79;1733116;82;21060;-84
2022/05/20 05:16:43;;;;;;;4.50;2.62;;;;;;;20.16;57.56;100915.41;1733338;82;21935;-81
2022/05/20 05:19:12;;;;;;;3.40;2.58;;;;;;;20.16;57.80;100915.41;1732947;82;21044;-78
2022/05/20 05:21:39;;;;;;;4.00;2.80;;;;;;;20.17;57.88;100912.63;1733208;82;21008;-79
2022/05/20 05:24:08;;;;;;;4.62;2.35;;;;;;;20.20;58.11;100915.10;1734928;80;21086;-80
2022/05/20 05:26:35;;;;;;;3.42;2.40;;;;;;;20.25;58.24;100918.75;1734342;80;21062;-81
2022/05/20 05:29:04;;;;;;;8.10;3.02;;;;;;;20.29;58.24;100920.27;1754482;80;21127;-79
2022/05/20 05:31:31;;;;;;;5.75;2.33;;;;;;;20.33;58.41;100913.75;1765888;80;21464;-80
2022/05/20 05:33:58;;;;;;;6.05;2.67;;;;;;;20.38;58.42;100929.42;1763791;80;21598;-79
2022/05/20 05:36:25;;;;;;;4.85;2.60;;;;;;;20.38;58.35;100926.27;1743946;80;21507;-79
2022/05/20 05:38:53;;;;;;;5.12;2.70;;;;;;;20.36;58.37;100929.51;1774690;79;21056;-80
2022/05/20 05:41:20;;;;;;;3.42;2.42;;;;;;;20.34;58.43;100931.91;1735517;81;21984;-80
2022/05/20 05:43:47;;;;;;;4.45;2.75;;;;;;;20.34;58.61;100933.23;1749265;81;20992;-80
2022/05/20 05:46:14;;;;;;;5.90;2.52;;;;;;;20.34;58.82;100930.12;1779290;80;21067;-81
2022/05/20 05:48:42;;;;;;;3.55;2.45;;;;;;;20.36;58.75;100934.83;1754216;80;21009;-80
2022/05/20 05:51:08;;;;;;;4.65;2.35;;;;;;;20.36;58.73;100936.16;1771343;80;21025;-80
2022/05/20 05:53:35;;;;;;;4.30;2.67;;;;;;;20.37;58.94;100932.56;1730167;81;21345;-81
2022/05/20 05:56:05;;;;;;;4.83;2.87;;;;;;;20.39;58.97;100939.94;1726459;81;21055;-80
2022/05/20 05:58:33;;;;;;;5.10;3.27;;;;;;;20.41;58.85;100934.52;1773049;80;21111;-81
2022/05/20 06:01:01;;;;;;;3.42;2.37;;;;;;;20.42;59.07;100940.21;1745278;81;21114;-82
2022/05/20 06:03:28;;;;;;;6.60;2.90;;;;;;;20.44;59.19;100939.14;1718513;83;21086;-80
2022/05/20 06:05:56;;;;;;;4.05;2.52;;;;;;;20.48;59.30;100937.14;1713112;83;21130;-80
2022/05/20 06:08:24;;;;;;;3.58;2.60;;;;;;;20.52;59.18;100947.09;1713056;83;21055;-81
2022/05/20 06:10:51;;;;;;;3.17;2.65;;;;;;;20.52;59.11;100945.76;1713059;83;21055;-83
2022/05/20 06:13:28;;;;;;;5.97;2.58;;;;;;;20.54;59.18;100936.73;1713085;83;21067;-81
2022/05/20 06:15:56;;;;;;;2.63;2.23;;;;;;;20.55;59.16;100946.42;1712850;83;21068;-82
2022/05/20 06:18:24;;;;;;;3.10;2.50;;;;;;;20.55;59.19;100941.58;1713259;83;21394;-83
2022/05/20 06:20:51;;;;;;;5.03;2.67;;;;;;;20.58;59.39;100938.70;1712865;83;21131;-82
2022/05/20 06:23:19;;;;;;;3.33;2.40;;;;;;;20.62;59.35;100940.20;1712968;83;21027;-84
2022/05/20 06:25:46;;;;;;;6.08;2.98;;;;;;;20.63;59.36;100937.41;1713048;83;21063;-86
2022/05/20 06:28:16;;;;;;;4.83;3.22;;;;;;;20.69;59.53;100936.13;1712821;83;21020;-81
2022/05/20 06:30:43;;;;;;;;;;;;;;;20.75;59.49;100934.84;1715741;83;21095;-84
2022/05/20 06:33:11;;;;;;;4.62;2.10;;;;;;;20.79;59.62;100929.67;1713213;83;20381;-80
2022/05/20 06:41:10;;;;;;;7.15;2.70;;;;;;;20.96;59.53;100947.12;1750458;81;21578;-80
2022/05/20 06:43:38;;;;;;;3.00;2.27;;;;;;;21.02;59.42;100946.67;1738636;81;21084;-79
2022/05/20 06:46:06;;;;;;;4.58;2.70;;;;;;;21.08;59.46;100948.88;1738300;82;21025;-79
2022/05/20 06:48:49;;;;;;;4.70;2.62;;;;;;;21.13;59.46;100959.58;1738663;82;21045;-80
2022/05/20 06:51:21;;;;;;;3.92;2.77;;;;;;;21.17;59.04;100945.54;1738575;82;21056;-79
2022/05/20 06:53:48;;;;;;;5.97;2.60;;;;;;;21.19;59.06;100941.44;1749287;81;21086;-76
2022/05/20 06:56:16;;;;;;;3.47;2.67;;;;;;;21.23;59.05;100943.78;1756859;81;21110;-79
2022/05/20 06:58:44;;;;;;;5.10;2.52;;;;;;;21.27;59.10;100945.25;1756504;81;21019;-85
2022/05/20 07:01:12;;;;;;;4.55;2.45;;;;;;;21.31;58.90;100945.86;1742615;81;21521;-81
2022/05/20 07:03:39;;;;;;;3.45;2.35;;;;;;;21.33;58.76;100946.61;1758327;80;21545;-79
2022/05/20 07:06:08;;;;;;;3.10;2.00;;;;;;;21.35;58.81;100946.02;1759988;80;21058;-80
2022/05/20 07:08:36;;;;;;;3.90;2.22;;;;;;;21.38;58.60;100936.49;1743307;80;21256;-81
2022/05/20 07:11:04;;;;;;;2.80;2.17;;;;;;;21.43;58.72;100933.02;1746339;80;21491;-78
2022/05/20 07:13:32;;;;;;;2.17;1.98;;;;;;;21.47;58.72;100934.47;1733413;80;21102;-85
2022/05/20 07:15:59;;;;;;;5.35;2.22;;;;;;;21.53;58.72;100944.70;1760891;80;21049;-82
2022/05/20 07:18:28;;;;;;;3.47;2.10;;;;;;;21.61;58.61;100948.11;1764210;80;21110;-79
2022/05/20 07:20:56;;;;;;;3.30;2.17;;;;;;;21.68;58.49;100956.53;1765309;80;21123;-82
2022/05/20 07:23:25;;;;;;;4.05;2.50;;;;;;;21.75;58.42;100966.59;1765183;80;21055;-81
2022/05/20 07:25:51;;;;;;;3.67;2.20;;;;;;;21.84;58.24;100965.08;1762476;80;21082;-82
2022/05/20 07:28:18;;;;;;;5.60;2.42;;;;;;;21.87;58.06;100962.67;1771997;80;21044;-83
2022/05/20 07:30:45;;;;;;;4.10;2.00;;;;;;;21.93;57.94;100960.86;1758816;81;21579;-80
2022/05/20 07:33:12;;;;;;;2.95;2.20;;;;;;;22.00;58.08;100960.75;1771910;81;21123;-78
2022/05/20 07:35:40;;;;;;;4.53;2.27;;;;;;;22.08;58.02;100956.16;1758855;81;21462;-80
2022/05/20 07:38:08;;;;;;;6.75;2.80;;;;;;;22.15;57.78;100958.74;1771854;81;21033;-79
2022/05/20 07:40:35;;;;;;;3.50;2.20;;;;;;;22.20;57.64;100964.62;1759014;81;21075;-82
2022/05/20 07:43:03;;;;;;;3.58;2.67;;;;;;;22.22;57.41;100970.66;1772039;81;21325;-79
2022/05/20 07:45:30;;;;;;;3.67;2.50;;;;;;;22.20;57.21;100965.46;1758958;81;21124;-82
2022/05/20 07:47:57;;;;;;;3.15;2.47;;;;;;;22.23;57.16;100967.05;1771875;81;21454;-76
2022/05/20 07:50:24;;;;;;;3.92;2.50;;;;;;;22.26;57.20;100962.80;1758994;81;21039;-80
2022/05/20 07:55:46;;;;;;;4.33;2.50;;;;;;;22.35;57.09;100955.89;1759045;81;21007;-79
2022/05/20 07:58:17;;;;;;;5.03;2.22;;;;;;;22.45;57.11;100961.73;1772013;81;21947;-80
2022/05/20 08:00:45;;;;;;;4.30;2.35;;;;;;;22.53;56.95;100958.94;1758898;81;21031;-79
2022/05/20 08:04:52;;;;;;;3.85;2.27;;;;;;;22.57;56.53;100951.91;1772313;80;21059;-80
2022/05/20 08:05:44;;;;;;;3.90;2.70;;;;;;;22.59;56.51;100951.80;1754943;81;21099;-80
2022/05/20 08:08:12;;;;;;;9.93;2.62;;;;;;;22.63;56.42;100953.23;1772873;81;21491;-80
2022/05/20 08:10:39;;;;;;;6.37;3.30;;;;;;;22.68;56.40;100949.72;1758847;81;21115;-79
2022/05/20 08:13:06;;;;;;;2.87;2.50;;;;;;;22.76;56.30;100957.14;1772693;81;21076;-79
2022/05/20 08:15:34;;;;;;;6.33;2.90;;;;;;;22.76;55.93;100954.47;1758905;81;21067;-80
2022/05/20 08:18:01;;;;;;;4.45;2.70;;;;;;;22.75;55.88;100948.73;1772767;80;21033;-79
2022/05/20 08:20:30;;;;;;;4.10;2.55;;;;;;;22.81;55.83;100957.14;1759058;81;20988;-79
2022/05/20 08:22:57;;;;;;;2.50;2.12;;;;;;;22.87;55.84;100953.13;1773082;81;21156;-80
2022/05/20 08:25:26;;;;;;;3.95;1.80;;;;;;;22.96;55.91;100963.10;1758934;81;21028;-80
2022/05/20 08:27:54;;;;;;;4.05;2.40;;;;;;;23.04;55.47;100952.64;1772545;81;21020;-80
2022/05/20 08:30:25;;;;;;;1.98;1.82;;;;;;;23.10;55.22;100962.83;1759186;81;21053;-81
2022/05/20 08:32:52;;;;;;;2.35;1.67;;;;;;;23.16;54.88;100964.16;1772496;81;21022;-81
2022/05/20 08:35:24;;;;;;;2.50;1.80;;;;;;;23.19;54.50;100955.88;1759195;81;21157;-80
2022/05/20 08:37:51;;;;;;;2.22;2.02;;;;;;;23.24;54.14;100951.51;1772558;81;21040;-81
2022/05/20 08:40:26;;;;;;;4.22;2.27;;;;;;;23.29;54.05;100953.33;1759193;81;20996;-81
2022/05/20 08:42:56;;;;;;;2.50;1.60;;;;;;;23.34;54.05;100954.65;1772767;81;21018;-80
2022/05/20 08:45:27;;;;;;;2.20;1.57;;;;;;;23.41;53.70;100955.47;1759066;81;21106;-80
2022/05/20 08:47:56;;;;;;;1.67;1.40;;;;;;;23.48;53.42;100959.36;1772886;81;21216;-80
2022/05/20 08:50:51;;;;;;;3.15;1.98;;;;;;;23.56;53.24;100951.55;1758930;81;21051;-80
2022/05/20 08:53:32;;;;;;;6.22;2.35;;;;;;;23.65;53.21;100958.80;1772692;81;21012;-79
2022/05/20 08:56:06;;;;;;;4.35;2.55;;;;;;;23.74;53.04;100946.01;1758906;81;21055;-79
2022/05/20 08:58:36;;;;;;;4.90;2.27;;;;;;;23.79;53.10;100943.80;1749467;81;21055;-80
2022/05/20 09:01:03;;;;;;;3.00;2.30;;;;;;;23.94;53.35;100944.32;1758992;81;21176;-79
2022/05/20 09:03:30;;;;;;;4.17;2.17;;;;;;;24.06;53.25;100934.91;1772451;80;21044;-80
2022/05/20 09:06:12;;;;;;;3.75;2.42;;;;;;;24.14;52.79;100942.64;1759019;81;21043;-79
2022/05/20 09:08:39;;;;;;;3.65;2.22;;;;;;;24.13;52.46;100935.58;1771989;81;21593;-78
2022/05/20 09:11:13;;;;;;;3.15;2.02;;;;;;;24.14;52.22;100933.27;1759086;81;21048;-79
2022/05/20 09:16:33;;;;;;;4.72;2.00;;;;;;;24.25;51.77;100938.55;1758844;81;20988;-85
2022/05/20 09:19:08;;;;;;;4.55;2.33;;;;;;;24.19;51.35;100931.52;1772147;81;20985;-86
2022/05/20 09:21:42;;;;;;;4.92;2.62;;;;;;;24.20;51.59;100928.72;1757907;81;21023;-77
2022/05/20 09:24:21;;;;;;;2.60;1.82;;;;;;;24.29;51.54;100915.02;1772223;81;20977;-77
2022/05/20 09:27:03;;;;;;;3.47;1.72;;;;;;;24.31;51.28;100911.72;1759066;81;26623;-84
2022/05/20 09:29:38;;;;;;;3.27;1.92;;;;;;;24.41;51.07;100913.94;1771815;80;21580;-79
2022/05/20 09:32:09;;;;;;;3.42;1.85;;;;;;;24.49;50.60;100907.95;1726867;81;21076;-82
2022/05/20 09:34:39;;;;;;;4.40;1.70;;;;;;;24.58;50.38;100921.03;1737558;81;21023;-80
2022/05/20 09:37:17;;;;;;;2.40;1.80;;;;;;;24.68;50.23;100919.24;1724649;83;21067;-81
2022/05/20 09:39:47;;;;;;;2.55;1.75;;;;;;;24.69;49.88;100936.55;1725141;83;21115;-78
2022/05/20 09:42:21;;;;;;;4.22;1.52;;;;;;;24.73;49.43;100925.55;1751582;82;21100;-85
2022/05/20 09:44:56;;;;;;;1.75;1.65;;;;;;;24.79;49.12;100925.00;1751104;81;21084;-80
2022/05/20 09:47:39;;;;;;;1.85;1.60;;;;;;;24.87;48.84;100918.47;1755665;80;21071;-79
2022/05/20 09:50:35;;;;;;;3.27;1.65;;;;;;;24.96;48.76;100927.02;1743564;81;21076;-81
2022/05/20 09:53:28;;;;;;;4.97;2.05;;;;;;;25.00;48.36;100915.05;1751360;81;21288;-76
2022/05/20 09:56:12;;;;;;;3.85;2.15;;;;;;;25.06;48.51;100913.64;1781347;80;21044;-83
2022/05/20 09:58:39;;;;;;;3.98;1.70;;;;;;;25.16;48.23;100906.47;1731722;81;21126;-78
2022/05/20 10:01:14;;;;;;;2.02;1.47;;;;;;;25.17;47.56;100903.32;1754692;81;21235;-85
2022/05/20 10:03:49;;;;;;;4.35;1.65;;;;;;;25.22;47.39;100904.60;1724499;82;21566;-83
2022/05/20 10:06:27;;;;;;;2.98;1.57;;;;;;;25.27;47.23;100909.53;1746659;82;21913;-82
2022/05/20 10:09:11;;;;;;;3.05;2.15;;;;;;;25.27;47.18;100894.27;1722267;82;21510;-78
2022/05/20 10:11:59;;;;;;;3.02;1.92;;;;;;;25.37;47.04;100892.45;1747202;81;21055;-83
2022/05/20 10:15:07;;;;;;;5.62;2.00;;;;;;;25.47;46.80;100894.28;1723176;82;21055;-79
2022/05/20 10:17:57;;;;;;;3.37;1.77;;;;;;;25.57;46.93;100889.77;1747117;81;21024;-80
2022/05/20 10:20:53;;;;;;;3.27;2.00;;;;;;;25.73;46.91;100880.64;1723417;83;21289;-79
2022/05/20 10:23:38;;;;;;;5.20;2.08;;;;;;;25.96;46.94;100877.16;1762195;81;21043;-80
2022/05/20 10:26:25;;;;;;;2.47;2.00;;;;;;;26.18;46.58;100888.55;1773411;80;21056;-80
2022/05/20 10:34:48;;;;;;;2.87;2.17;;;;;;;26.72;46.05;100865.45;1709731;82;21176;-81
2022/05/20 10:37:41;;;;;;;4.70;2.20;;;;;;;26.96;45.87;100863.50;1732427;82;20949;-82
2022/05/20 10:41:01;;;;;;;3.50;2.25;;;;;;;27.12;45.50;100870.40;1731973;82;21597;-80
2022/05/20 10:49:51;;;;;;;4.12;1.80;;;;;;;27.67;44.71;100868.57;1754693;81;21114;-77
2022/05/20 10:52:48;;;;;;;4.60;2.30;;;;;;;27.87;44.74;100866.05;1755066;81;21012;-78
2022/05/20 10:55:32;;;;;;;2.70;1.95;;;;;;;28.07;44.44;100860.44;1743817;80;21050;-78
2022/05/20 10:58:35;;;;;;;3.33;1.67;;;;;;;28.28;43.79;100854.16;1754112;81;21513;-77
2022/05/20 11:01:10;;;;;;;2.25;1.70;;;;;;;28.35;43.26;100851.66;1753625;81;21166;-79
2022/05/20 11:04:00;;;;;;;3.22;1.80;;;;;;;28.44;42.54;100850.23;1737814;81;21061;-79
2022/05/20 11:07:01;;;;;;;3.50;1.77;;;;;;;28.40;42.19;100846.63;1747004;82;21043;-78
2022/05/20 11:09:45;;;;;;;1.62;1.40;;;;;;;28.36;42.10;100847.46;1747048;82;21704;-77
2022/05/20 11:12:29;;;;;;;3.67;1.42;;;;;;;28.32;41.69;100843.38;1746026;82;21094;-76
2022/05/20 11:15:37;;;;;;;3.00;1.60;;;;;;;28.09;41.20;100844.45;1745021;82;21127;-81
2022/05/20 11:18:23;;;;;;;3.37;1.70;;;;;;;27.85;41.10;100847.00;1746966;82;21116;-76
2022/05/20 11:21:20;;;;;;;3.65;1.62;;;;;;;27.63;41.09;100845.62;1746327;82;21040;-77
2022/05/20 11:24:29;;;;;;;4.25;1.60;;;;;;;27.58;41.38;100852.86;1750880;80;21063;-86
2022/05/20 11:27:23;;;;;;;1.45;1.35;;;;;;;27.58;41.50;100842.08;1777851;80;21083;-78
2022/05/20 11:30:22;;;;;;;4.03;1.37;;;;;;;27.63;41.68;100838.90;1767609;80;20998;-79
2022/05/20 11:33:30;;;;;;;2.37;1.32;;;;;;;27.76;41.43;100837.99;1765062;80;21298;-76
2022/05/20 11:36:25;;;;;;;3.55;1.32;;;;;;;27.89;41.24;100833.06;1751335;80;37592;-76
2022/05/20 11:39:31;;;;;;;3.47;1.60;;;;;;;28.15;41.30;100838.42;1789980;79;21025;-77
2022/05/20 11:42:24;;;;;;;4.80;1.50;;;;;;;28.32;40.84;100837.99;1775851;79;20996;-86
2022/05/20 11:45:15;;;;;;;2.40;1.27;;;;;;;28.30;40.15;100830.59;1746986;82;21043;-76
2022/05/20 11:48:04;;;;;;;2.55;1.50;;;;;;;28.40;40.19;100816.97;1734844;80;21937;-78
2022/05/20 11:50:55;;;;;;;4.05;1.80;;;;;;;28.42;39.78;100812.27;1746783;82;20964;-76
2022/05/20 11:53:38;;;;;;;5.90;1.70;;;;;;;28.37;39.72;100815.95;1757459;79;22121;-76
2022/05/20 11:56:37;;;;;;;4.83;1.52;;;;;;;28.39;39.60;100815.29;1746457;82;21020;-79
2022/05/20 11:59:15;;;;;;;4.17;1.30;;;;;;;28.40;39.44;100807.53;1791165;80;21472;-77
2022/05/20 12:01:42;;;;;;;2.77;1.40;;;;;;;28.35;39.24;100801.30;1746594;82;21143;-77
2022/05/20 12:04:11;;;;;;;4.30;1.50;;;;;;;28.35;39.23;100799.95;1791309;80;20944;-76
2022/05/20 12:06:52;;;;;;;3.33;1.30;;;;;;;28.41;39.42;100798.45;1746939;82;21037;-76
2022/05/20 12:09:53;;;;;;;3.20;1.60;;;;;;;28.53;39.42;100793.63;1773381;80;21035;-76
2022/05/20 12:12:36;;;;;;;5.80;1.40;;;;;;;28.73;39.58;100793.67;1731000;82;22148;-80
2022/05/20 12:15:20;;;;;;;2.92;1.50;;;;;;;28.80;38.97;100787.97;1755055;81;22380;-78
2022/05/20 12:17:52;;;;;;;1.55;1.30;;;;;;;28.74;38.94;100781.02;1746945;82;20973;-76
2022/05/20 12:26:43;;;;;;;3.05;1.52;;;;;;;28.48;38.89;100790.06;1778117;80;21023;-79
2022/05/20 12:29:39;;;;;;;4.08;1.92;;;;;;;28.38;38.89;100780.75;1757696;81;21447;-80
2022/05/20 12:32:36;;;;;;;2.37;1.50;;;;;;;28.22;39.08;100781.53;1777672;80;20989;-79
2022/05/20 12:35:24;;;;;;;4.20;2.10;;;;;;;28.03;39.14;100780.44;1753939;80;21004;-78
2022/05/20 12:37:56;;;;;;;2.30;1.70;;;;;;;27.86;39.23;100771.94;1757612;81;21538;-80
2022/05/20 12:40:34;;;;;;;3.98;1.85;;;;;;;27.79;39.52;100767.16;1757661;81;21052;-77
2022/05/20 12:43:10;;;;;;;2.15;1.60;;;;;;;27.93;39.85;100765.72;1751277;80;21533;-79
2022/05/20 12:45:55;;;;;;;2.10;1.70;;;;;;;28.20;40.04;100762.48;1735665;81;21482;-77
2022/05/20 12:48:28;;;;;;;4.12;2.05;;;;;;;28.46;39.91;100755.67;1757525;81;21001;-83